sensor_id;sensor_type;location;lat;lon;timestamp;P1;durP1;ratioP1;P2;durP2;ratioP2
21733;SDS011;11029;47.820;10.534;2023-02-15T00:01:59;13.27;;;7.40;;
21733;SDS011;11029;47.820;10.534;2023-02-15T00:04:26;11.52;;;7.20;;
21733;SDS011;11029;47.820;10.534;2023-02-15T00:07:13;15.40;;;7.30;;
21733;SDS011;11029;47.820;10.534;2023-02-15T00:09:41;12.05;;;7.28;;
21733;SDS011;11029;47.820;10.534;2023-02-15T00:12:08;10.05;;;6.63;;
21733;SDS011;11029;47.820;10.534;2023-02-15T00:14:35;12.27;;;7.00;;
21733;SDS011;11029;47.820;10.534;2023-02-15T00:17:02;13.00;;;7.35;;
21733;SDS011;11029;47.820;10.534;2023-02-15T00:19:29;11.02;;;6.10;;
21733;SDS011;11029;47.820;10.534;2023-02-15T00:21:55;12.25;;;7.22;;
21733;SDS011;11029;47.820;10.534;2023-02-15T00:24:22;12.27;;;6.88;;
21733;SDS011;11029;47.820;10.534;2023-02-15T00:26:49;12.35;;;7.43;;
21733;SDS011;11029;47.820;10.534;2023-02-15T00:29:17;11.95;;;6.38;;
21733;SDS011;11029;47.820;10.534;2023-02-15T00:31:45;10.57;;;6.60;;
21733;SDS011;11029;47.820;10.534;2023-02-15T00:34:16;11.48;;;6.25;;
21733;SDS011;11029;47.820;10.534;2023-02-15T00:36:45;9.18;;;6.57;;
21733;SDS011;11029;47.820;10.534;2023-02-15T00:39:13;9.23;;;5.78;;
21733;SDS011;11029;47.820;10.534;2023-02-15T00:41:40;10.32;;;6.15;;
21733;SDS011;11029;47.820;10.534;2023-02-15T00:44:07;12.13;;;6.88;;
21733;SDS011;11029;47.820;10.534;2023-02-15T00:46:34;11.25;;;6.40;;
21733;SDS011;11029;47.820;10.534;2023-02-15T00:49:02;12.43;;;6.57;;
21733;SDS011;11029;47.820;10.534;2023-02-15T00:51:29;10.07;;;5.82;;
21733;SDS011;11029;47.820;10.534;2023-02-15T00:53:56;13.98;;;6.75;;
21733;SDS011;11029;47.820;10.534;2023-02-15T00:56:23;11.27;;;6.38;;
21733;SDS011;11029;47.820;10.534;2023-02-15T00:58:50;8.77;;;5.82;;
21733;SDS011;11029;47.820;10.534;2023-02-15T01:01:17;9.50;;;5.78;;
21733;SDS011;11029;47.820;10.534;2023-02-15T01:03:45;9.55;;;5.70;;
21733;SDS011;11029;47.820;10.534;2023-02-15T01:06:15;8.00;;;5.47;;
21733;SDS011;11029;47.820;10.534;2023-02-15T01:08:43;8.80;;;5.25;;
21733;SDS011;11029;47.820;10.534;2023-02-15T01:11:11;10.45;;;6.55;;
21733;SDS011;11029;47.820;10.534;2023-02-15T01:13:41;11.25;;;6.65;;
21733;SDS011;11029;47.820;10.534;2023-02-15T01:16:08;11.73;;;6.47;;
21733;SDS011;11029;47.820;10.534;2023-02-15T01:18:35;8.95;;;6.20;;
21733;SDS011;11029;47.820;10.534;2023-02-15T01:21:11;9.45;;;5.75;;
21733;SDS011;11029;47.820;10.534;2023-02-15T01:23:42;10.02;;;6.10;;
21733;SDS011;11029;47.820;10.534;2023-02-15T01:26:11;8.65;;;5.38;;
21733;SDS011;11029;47.820;10.534;2023-02-15T01:28:39;9.90;;;5.60;;
21733;SDS011;11029;47.820;10.534;2023-02-15T01:31:07;10.50;;;6.20;;
21733;SDS011;11029;47.820;10.534;2023-02-15T01:33:36;11.85;;;6.43;;
21733;SDS011;11029;47.820;10.534;2023-02-15T01:36:03;13.95;;;6.95;;
21733;SDS011;11029;47.820;10.534;2023-02-15T01:38:31;12.52;;;6.30;;
21733;SDS011;11029;47.820;10.534;2023-02-15T01:40:58;9.30;;;6.00;;
21733;SDS011;11029;47.820;10.534;2023-02-15T01:43:46;9.90;;;5.93;;
21733;SDS011;11029;47.820;10.534;2023-02-15T01:46:19;10.30;;;5.88;;
21733;SDS011;11029;47.820;10.534;2023-02-15T01:49:06;12.75;;;6.85;;
21733;SDS011;11029;47.820;10.534;2023-02-15T01:51:37;8.25;;;5.43;;
21733;SDS011;11029;47.820;10.534;2023-02-15T01:54:15;10.30;;;6.00;;
21733;SDS011;11029;47.820;10.534;2023-02-15T01:56:47;11.60;;;5.72;;
21733;SDS011;11029;47.820;10.534;2023-02-15T01:59:16;10.23;;;6.30;;
21733;SDS011;11029;47.820;10.534;2023-02-15T02:01:47;9.30;;;5.88;;
21733;SDS011;11029;47.820;10.534;2023-02-15T02:04:18;10.10;;;6.15;;
21733;SDS011;11029;47.820;10.534;2023-02-15T02:06:51;10.57;;;5.80;;
21733;SDS011;11029;47.820;10.534;2023-02-15T02:09:19;9.63;;;5.97;;
21733;SDS011;11029;47.820;10.534;2023-02-15T02:11:46;9.98;;;5.25;;
21733;SDS011;11029;47.820;10.534;2023-02-15T02:14:14;8.02;;;5.07;;
21733;SDS011;11029;47.820;10.534;2023-02-15T02:16:59;8.25;;;5.22;;
21733;SDS011;11029;47.820;10.534;2023-02-15T02:19:52;10.38;;;5.25;;
21733;SDS011;11029;47.820;10.534;2023-02-15T02:38:53;6.72;;;3.88;;
21733;SDS011;11029;47.820;10.534;2023-02-15T02:41:38;5.18;;;3.63;;
21733;SDS011;11029;47.820;10.534;2023-02-15T02:47:27;6.68;;;3.65;;
21733;SDS011;11029;47.820;10.534;2023-02-15T02:49:59;5.28;;;3.10;;
21733;SDS011;11029;47.820;10.534;2023-02-15T02:52:34;5.88;;;3.25;;
21733;SDS011;11029;47.820;10.534;2023-02-15T02:55:03;5.07;;;3.50;;
21733;SDS011;11029;47.820;10.534;2023-02-15T02:57:52;5.22;;;2.88;;
21733;SDS011;11029;47.820;10.534;2023-02-15T03:00:26;5.28;;;3.20;;
21733;SDS011;11029;47.820;10.534;2023-02-15T03:03:00;5.15;;;3.22;;
21733;SDS011;11029;47.820;10.534;2023-02-15T03:05:37;4.93;;;3.05;;
21733;SDS011;11029;47.820;10.534;2023-02-15T03:08:07;5.28;;;3.15;;
21733;SDS011;11029;47.820;10.534;2023-02-15T03:10:36;4.00;;;2.80;;
21733;SDS011;11029;47.820;10.534;2023-02-15T03:13:05;3.80;;;2.33;;
21733;SDS011;11029;47.820;10.534;2023-02-15T03:15:35;3.70;;;2.40;;
21733;SDS011;11029;47.820;10.534;2023-02-15T03:18:25;5.68;;;2.92;;
21733;SDS011;11029;47.820;10.534;2023-02-15T03:20:58;5.93;;;2.65;;
21733;SDS011;11029;47.820;10.534;2023-02-15T03:23:27;4.13;;;2.80;;
21733;SDS011;11029;47.820;10.534;2023-02-15T03:26:01;4.38;;;2.90;;
21733;SDS011;11029;47.820;10.534;2023-02-15T03:28:35;4.03;;;3.00;;
21733;SDS011;11029;47.820;10.534;2023-02-15T03:31:07;6.00;;;3.03;;
21733;SDS011;11029;47.820;10.534;2023-02-15T03:33:36;6.60;;;2.90;;
21733;SDS011;11029;47.820;10.534;2023-02-15T03:36:10;5.35;;;2.78;;
21733;SDS011;11029;47.820;10.534;2023-02-15T03:38:53;4.85;;;3.30;;
21733;SDS011;11029;47.820;10.534;2023-02-15T03:41:45;3.80;;;3.10;;
21733;SDS011;11029;47.820;10.534;2023-02-15T03:45:08;5.78;;;3.30;;
21733;SDS011;11029;47.820;10.534;2023-02-15T03:47:33;4.45;;;3.00;;
21733;SDS011;11029;47.820;10.534;2023-02-15T03:50:16;4.40;;;2.78;;
21733;SDS011;11029;47.820;10.534;2023-02-15T03:53:06;3.95;;;2.28;;
21733;SDS011;11029;47.820;10.534;2023-02-15T03:55:36;3.00;;;2.35;;
21733;SDS011;11029;47.820;10.534;2023-02-15T03:58:03;3.35;;;2.63;;
21733;SDS011;11029;47.820;10.534;2023-02-15T04:00:58;4.55;;;2.53;;
21733;SDS011;11029;47.820;10.534;2023-02-15T04:03:50;4.50;;;2.83;;
21733;SDS011;11029;47.820;10.534;2023-02-15T04:06:22;9.05;;;3.38;;
21733;SDS011;11029;47.820;10.534;2023-02-15T04:08:49;5.00;;;2.97;;
21733;SDS011;11029;47.820;10.534;2023-02-15T04:11:34;3.95;;;2.60;;
21733;SDS011;11029;47.820;10.534;2023-02-15T04:14:01;4.05;;;2.65;;
21733;SDS011;11029;47.820;10.534;2023-02-15T04:16:48;3.63;;;2.60;;
21733;SDS011;11029;47.820;10.534;2023-02-15T04:19:15;4.10;;;2.40;;
21733;SDS011;11029;47.820;10.534;2023-02-15T04:22:01;4.40;;;2.60;;
21733;SDS011;11029;47.820;10.534;2023-02-15T04:24:49;3.28;;;2.20;;
21733;SDS011;11029;47.820;10.534;2023-02-15T04:27:35;4.38;;;2.65;;
21733;SDS011;11029;47.820;10.534;2023-02-15T04:30:02;2.92;;;2.38;;
21733;SDS011;11029;47.820;10.534;2023-02-15T04:32:30;3.42;;;2.40;;
21733;SDS011;11029;47.820;10.534;2023-02-15T04:34:56;4.30;;;2.60;;
21733;SDS011;11029;47.820;10.534;2023-02-15T04:37:23;3.95;;;2.38;;
21733;SDS011;11029;47.820;10.534;2023-02-15T04:39:50;3.53;;;2.15;;
21733;SDS011;11029;47.820;10.534;2023-02-15T04:42:17;9.18;;;4.50;;
21733;SDS011;11029;47.820;10.534;2023-02-15T04:44:43;5.35;;;2.90;;
21733;SDS011;11029;47.820;10.534;2023-02-15T04:47:10;5.38;;;2.97;;
21733;SDS011;11029;47.820;10.534;2023-02-15T04:49:37;5.25;;;3.03;;
21733;SDS011;11029;47.820;10.534;2023-02-15T04:52:03;3.55;;;2.67;;
21733;SDS011;11029;47.820;10.534;2023-02-15T04:54:30;4.45;;;2.58;;
21733;SDS011;11029;47.820;10.534;2023-02-15T04:56:57;5.55;;;2.78;;
21733;SDS011;11029;47.820;10.534;2023-02-15T04:59:24;5.45;;;3.03;;
21733;SDS011;11029;47.820;10.534;2023-02-15T05:01:50;5.82;;;2.95;;
21733;SDS011;11029;47.820;10.534;2023-02-15T05:04:17;6.25;;;2.65;;
21733;SDS011;11029;47.820;10.534;2023-02-15T05:06:44;5.30;;;2.50;;
21733;SDS011;11029;47.820;10.534;2023-02-15T05:09:11;4.70;;;2.80;;
21733;SDS011;11029;47.820;10.534;2023-02-15T05:11:38;6.53;;;2.50;;
21733;SDS011;11029;47.820;10.534;2023-02-15T05:14:05;6.22;;;2.58;;
21733;SDS011;11029;47.820;10.534;2023-02-15T05:16:32;5.00;;;2.30;;
21733;SDS011;11029;47.820;10.534;2023-02-15T05:18:58;2.85;;;2.42;;
21733;SDS011;11029;47.820;10.534;2023-02-15T05:21:25;4.22;;;2.38;;
21733;SDS011;11029;47.820;10.534;2023-02-15T05:23:52;4.20;;;2.33;;
21733;SDS011;11029;47.820;10.534;2023-02-15T05:26:20;4.82;;;2.72;;
21733;SDS011;11029;47.820;10.534;2023-02-15T05:29:07;3.83;;;2.58;;
21733;SDS011;11029;47.820;10.534;2023-02-15T05:31:35;3.70;;;2.55;;
21733;SDS011;11029;47.820;10.534;2023-02-15T05:34:02;5.82;;;2.40;;
21733;SDS011;11029;47.820;10.534;2023-02-15T05:36:29;4.90;;;2.78;;
21733;SDS011;11029;47.820;10.534;2023-02-15T05:38:56;4.25;;;2.38;;
21733;SDS011;11029;47.820;10.534;2023-02-15T05:41:22;3.60;;;2.50;;
21733;SDS011;11029;47.820;10.534;2023-02-15T05:43:50;9.57;;;3.65;;
21733;SDS011;11029;47.820;10.534;2023-02-15T05:46:17;5.57;;;3.13;;
21733;SDS011;11029;47.820;10.534;2023-02-15T05:48:43;11.02;;;4.47;;
21733;SDS011;11029;47.820;10.534;2023-02-15T05:51:11;12.95;;;5.53;;
21733;SDS011;11029;47.820;10.534;2023-02-15T05:53:40;31.38;;;12.48;;
21733;SDS011;11029;47.820;10.534;2023-02-15T05:56:07;46.33;;;19.17;;
21733;SDS011;11029;47.820;10.534;2023-02-15T05:58:36;45.28;;;16.52;;
21733;SDS011;11029;47.820;10.534;2023-02-15T06:01:11;56.05;;;18.42;;
21733;SDS011;11029;47.820;10.534;2023-02-15T06:03:43;71.45;;;23.45;;
21733;SDS011;11029;47.820;10.534;2023-02-15T06:06:11;46.47;;;18.73;;
21733;SDS011;11029;47.820;10.534;2023-02-15T06:08:38;12.18;;;6.65;;
21733;SDS011;11029;47.820;10.534;2023-02-15T06:11:06;10.25;;;4.47;;
21733;SDS011;11029;47.820;10.534;2023-02-15T06:13:33;5.93;;;3.47;;
21733;SDS011;11029;47.820;10.534;2023-02-15T06:16:04;5.45;;;3.17;;
21733;SDS011;11029;47.820;10.534;2023-02-15T06:18:31;7.13;;;3.85;;
21733;SDS011;11029;47.820;10.534;2023-02-15T06:20:58;3.90;;;3.00;;
21733;SDS011;11029;47.820;10.534;2023-02-15T06:23:25;5.22;;;2.50;;
21733;SDS011;11029;47.820;10.534;2023-02-15T06:25:52;5.65;;;2.67;;
21733;SDS011;11029;47.820;10.534;2023-02-15T06:28:18;3.75;;;2.55;;
21733;SDS011;11029;47.820;10.534;2023-02-15T06:30:45;7.35;;;2.67;;
21733;SDS011;11029;47.820;10.534;2023-02-15T06:33:12;4.43;;;2.55;;
21733;SDS011;11029;47.820;10.534;2023-02-15T06:35:39;5.88;;;2.83;;
21733;SDS011;11029;47.820;10.534;2023-02-15T06:38:06;5.97;;;2.58;;
21733;SDS011;11029;47.820;10.534;2023-02-15T06:40:33;6.75;;;2.25;;
21733;SDS011;11029;47.820;10.534;2023-02-15T06:42:59;6.50;;;3.50;;
21733;SDS011;11029;47.820;10.534;2023-02-15T06:45:26;8.93;;;4.05;;
21733;SDS011;11029;47.820;10.534;2023-02-15T06:47:53;8.77;;;3.38;;
21733;SDS011;11029;47.820;10.534;2023-02-15T06:50:19;8.05;;;3.45;;
21733;SDS011;11029;47.820;10.534;2023-02-15T06:52:46;7.72;;;3.50;;
21733;SDS011;11029;47.820;10.534;2023-02-15T06:55:13;10.10;;;4.70;;
21733;SDS011;11029;47.820;10.534;2023-02-15T06:57:40;12.63;;;4.22;;
21733;SDS011;11029;47.820;10.534;2023-02-15T07:00:07;18.55;;;5.30;;
21733;SDS011;11029;47.820;10.534;2023-02-15T07:02:34;26.02;;;7.82;;
21733;SDS011;11029;47.820;10.534;2023-02-15T07:05:01;33.63;;;12.57;;
21733;SDS011;11029;47.820;10.534;2023-02-15T07:07:27;21.00;;;8.30;;
21733;SDS011;11029;47.820;10.534;2023-02-15T07:09:54;25.02;;;7.22;;
21733;SDS011;11029;47.820;10.534;2023-02-15T07:12:21;20.67;;;6.70;;
21733;SDS011;11029;47.820;10.534;2023-02-15T07:15:07;11.23;;;5.38;;
21733;SDS011;11029;47.820;10.534;2023-02-15T07:17:37;36.72;;;5.50;;
21733;SDS011;11029;47.820;10.534;2023-02-15T07:20:09;10.88;;;4.80;;
21733;SDS011;11029;47.820;10.534;2023-02-15T07:22:38;12.52;;;4.78;;
21733;SDS011;11029;47.820;10.534;2023-02-15T07:25:05;11.32;;;5.22;;
21733;SDS011;11029;47.820;10.534;2023-02-15T07:27:33;11.10;;;4.10;;
21733;SDS011;11029;47.820;10.534;2023-02-15T07:30:00;6.45;;;3.45;;
21733;SDS011;11029;47.820;10.534;2023-02-15T07:32:28;7.65;;;3.53;;
21733;SDS011;11029;47.820;10.534;2023-02-15T07:34:56;6.80;;;3.03;;
21733;SDS011;11029;47.820;10.534;2023-02-15T07:37:23;7.40;;;3.67;;
21733;SDS011;11029;47.820;10.534;2023-02-15T07:39:49;9.38;;;4.38;;
21733;SDS011;11029;47.820;10.534;2023-02-15T07:42:16;7.35;;;4.78;;
21733;SDS011;11029;47.820;10.534;2023-02-15T07:44:44;19.73;;;10.27;;
21733;SDS011;11029;47.820;10.534;2023-02-15T07:47:11;22.05;;;11.93;;
21733;SDS011;11029;47.820;10.534;2023-02-15T07:49:38;17.08;;;9.05;;
21733;SDS011;11029;47.820;10.534;2023-02-15T07:52:05;25.30;;;12.70;;
21733;SDS011;11029;47.820;10.534;2023-02-15T07:54:31;22.13;;;12.50;;
21733;SDS011;11029;47.820;10.534;2023-02-15T07:56:58;21.77;;;13.55;;
21733;SDS011;11029;47.820;10.534;2023-02-15T07:59:27;24.25;;;13.52;;
21733;SDS011;11029;47.820;10.534;2023-02-15T08:01:53;17.50;;;9.57;;
21733;SDS011;11029;47.820;10.534;2023-02-15T08:04:22;14.93;;;8.85;;
21733;SDS011;11029;47.820;10.534;2023-02-15T08:06:51;15.80;;;8.27;;
21733;SDS011;11029;47.820;10.534;2023-02-15T08:09:20;6.00;;;3.92;;
21733;SDS011;11029;47.820;10.534;2023-02-15T08:11:47;4.65;;;2.35;;
21733;SDS011;11029;47.820;10.534;2023-02-15T08:14:15;6.38;;;3.78;;
21733;SDS011;11029;47.820;10.534;2023-02-15T08:16:48;7.63;;;4.13;;
21733;SDS011;11029;47.820;10.534;2023-02-15T08:19:17;9.02;;;5.78;;
21733;SDS011;11029;47.820;10.534;2023-02-15T08:21:48;25.48;;;13.90;;
21733;SDS011;11029;47.820;10.534;2023-02-15T08:24:32;26.10;;;13.57;;
21733;SDS011;11029;47.820;10.534;2023-02-15T08:27:00;31.05;;;15.98;;
21733;SDS011;11029;47.820;10.534;2023-02-15T08:29:32;21.30;;;10.80;;
21733;SDS011;11029;47.820;10.534;2023-02-15T08:32:00;19.98;;;9.40;;
21733;SDS011;11029;47.820;10.534;2023-02-15T08:34:38;12.63;;;7.72;;
21733;SDS011;11029;47.820;10.534;2023-02-15T08:37:07;12.48;;;7.28;;
21733;SDS011;11029;47.820;10.534;2023-02-15T08:39:34;7.82;;;4.82;;
21733;SDS011;11029;47.820;10.534;2023-02-15T08:42:01;8.45;;;4.93;;
21733;SDS011;11029;47.820;10.534;2023-02-15T08:44:27;10.75;;;5.85;;
21733;SDS011;11029;47.820;10.534;2023-02-15T08:46:54;6.28;;;3.67;;
21733;SDS011;11029;47.820;10.534;2023-02-15T08:49:23;5.05;;;3.25;;
21733;SDS011;11029;47.820;10.534;2023-02-15T08:51:50;5.72;;;3.70;;
21733;SDS011;11029;47.820;10.534;2023-02-15T08:54:17;7.28;;;3.85;;
21733;SDS011;11029;47.820;10.534;2023-02-15T08:56:46;6.32;;;3.97;;
21733;SDS011;11029;47.820;10.534;2023-02-15T08:59:17;6.63;;;4.50;;
21733;SDS011;11029;47.820;10.534;2023-02-15T09:01:46;7.35;;;4.63;;
21733;SDS011;11029;47.820;10.534;2023-02-15T09:04:14;4.30;;;3.45;;
21733;SDS011;11029;47.820;10.534;2023-02-15T09:06:42;5.05;;;3.17;;
21733;SDS011;11029;47.820;10.534;2023-02-15T09:09:13;5.47;;;3.63;;
21733;SDS011;11029;47.820;10.534;2023-02-15T09:11:41;4.78;;;3.42;;
21733;SDS011;11029;47.820;10.534;2023-02-15T09:14:11;6.20;;;3.50;;
21733;SDS011;11029;47.820;10.534;2023-02-15T09:16:40;6.40;;;3.95;;
21733;SDS011;11029;47.820;10.534;2023-02-15T09:19:08;4.50;;;3.28;;
21733;SDS011;11029;47.820;10.534;2023-02-15T09:21:36;4.75;;;3.30;;
21733;SDS011;11029;47.820;10.534;2023-02-15T09:24:12;5.22;;;2.20;;
21733;SDS011;11029;47.820;10.534;2023-02-15T09:26:41;3.78;;;2.70;;
21733;SDS011;11029;47.820;10.534;2023-02-15T09:29:09;5.40;;;2.90;;
21733;SDS011;11029;47.820;10.534;2023-02-15T09:31:42;5.63;;;2.88;;
21733;SDS011;11029;47.820;10.534;2023-02-15T09:34:11;9.23;;;3.85;;
21733;SDS011;11029;47.820;10.534;2023-02-15T09:36:40;17.95;;;5.85;;
21733;SDS011;11029;47.820;10.534;2023-02-15T09:41:40;6.20;;;2.75;;
21733;SDS011;11029;47.820;10.534;2023-02-15T09:44:17;4.65;;;2.60;;
21733;SDS011;11029;47.820;10.534;2023-02-15T09:47:16;8.02;;;3.28;;
21733;SDS011;11029;47.820;10.534;2023-02-15T09:52:57;15.77;;;4.97;;
21733;SDS011;11029;47.820;10.534;2023-02-15T10:01:20;5.03;;;2.80;;
21733;SDS011;11029;47.820;10.534;2023-02-15T10:07:23;2.65;;;1.42;;
21733;SDS011;11029;47.820;10.534;2023-02-15T10:16:20;1.98;;;1.40;;
21733;SDS011;11029;47.820;10.534;2023-02-15T10:19:10;2.78;;;1.40;;
21733;SDS011;11029;47.820;10.534;2023-02-15T10:27:12;4.18;;;1.88;;
21733;SDS011;11029;47.820;10.534;2023-02-15T10:29:48;1.83;;;1.35;;
21733;SDS011;11029;47.820;10.534;2023-02-15T10:34:56;3.03;;;1.77;;
21733;SDS011;11029;47.820;10.534;2023-02-15T10:40:20;2.55;;;1.30;;
21733;SDS011;11029;47.820;10.534;2023-02-15T10:54:05;0.82;;;0.70;;
21733;SDS011;11029;47.820;10.534;2023-02-15T10:57:09;1.88;;;0.70;;
21733;SDS011;11029;47.820;10.534;2023-02-15T10:59:47;1.80;;;0.65;;
21733;SDS011;11029;47.820;10.534;2023-02-15T11:05:14;1.08;;;0.60;;
21733;SDS011;11029;47.820;10.534;2023-02-15T11:07:46;2.40;;;1.85;;
21733;SDS011;11029;47.820;10.534;2023-02-15T11:13:02;1.23;;;0.70;;
21733;SDS011;11029;47.820;10.534;2023-02-15T11:15:42;2.67;;;0.60;;
21733;SDS011;11029;47.820;10.534;2023-02-15T11:23:28;0.50;;;0.50;;
21733;SDS011;11029;47.820;10.534;2023-02-15T11:26:04;0.60;;;0.50;;
21733;SDS011;11029;47.820;10.534;2023-02-15T11:28:38;0.90;;;0.50;;
21733;SDS011;11029;47.820;10.534;2023-02-15T11:31:18;0.55;;;0.50;;
21733;SDS011;11029;47.820;10.534;2023-02-15T11:33:49;0.55;;;0.40;;
21733;SDS011;11029;47.820;10.534;2023-02-15T11:36:22;0.60;;;0.52;;
21733;SDS011;11029;47.820;10.534;2023-02-15T11:39:01;0.70;;;0.50;;
21733;SDS011;11029;47.820;10.534;2023-02-15T11:41:57;0.80;;;0.63;;
21733;SDS011;11029;47.820;10.534;2023-02-15T11:44:34;0.60;;;0.60;;
21733;SDS011;11029;47.820;10.534;2023-02-15T11:47:09;1.30;;;0.43;;
21733;SDS011;11029;47.820;10.534;2023-02-15T11:49:37;0.88;;;0.80;;
21733;SDS011;11029;47.820;10.534;2023-02-15T11:52:05;0.77;;;0.60;;
21733;SDS011;11029;47.820;10.534;2023-02-15T11:54:36;3.53;;;0.77;;
21733;SDS011;11029;47.820;10.534;2023-02-15T12:00:02;1.58;;;1.00;;
21733;SDS011;11029;47.820;10.534;2023-02-15T12:02:37;1.75;;;0.70;;
21733;SDS011;11029;47.820;10.534;2023-02-15T12:05:09;1.00;;;0.60;;
21733;SDS011;11029;47.820;10.534;2023-02-15T12:07:52;0.50;;;0.47;;
21733;SDS011;11029;47.820;10.534;2023-02-15T12:10:30;0.70;;;0.70;;
21733;SDS011;11029;47.820;10.534;2023-02-15T12:15:45;1.88;;;0.50;;
21733;SDS011;11029;47.820;10.534;2023-02-15T12:18:19;0.68;;;0.50;;
21733;SDS011;11029;47.820;10.534;2023-02-15T12:20:46;0.40;;;0.40;;
21733;SDS011;11029;47.820;10.534;2023-02-15T12:23:15;0.50;;;0.50;;
21733;SDS011;11029;47.820;10.534;2023-02-15T12:25:43;1.50;;;0.50;;
21733;SDS011;11029;47.820;10.534;2023-02-15T12:28:23;1.08;;;0.55;;
21733;SDS011;11029;47.820;10.534;2023-02-15T12:30:56;0.90;;;0.40;;
21733;SDS011;11029;47.820;10.534;2023-02-15T12:33:32;1.35;;;0.60;;
21733;SDS011;11029;47.820;10.534;2023-02-15T12:36:16;0.82;;;0.52;;
21733;SDS011;11029;47.820;10.534;2023-02-15T12:41:46;0.50;;;0.50;;
21733;SDS011;11029;47.820;10.534;2023-02-15T12:44:29;0.77;;;0.60;;
21733;SDS011;11029;47.820;10.534;2023-02-15T12:49:44;0.50;;;0.50;;
21733;SDS011;11029;47.820;10.534;2023-02-15T12:52:44;0.70;;;0.38;;
21733;SDS011;11029;47.820;10.534;2023-02-15T12:57:47;1.40;;;0.65;;
21733;SDS011;11029;47.820;10.534;2023-02-15T13:07:47;0.85;;;0.60;;
21733;SDS011;11029;47.820;10.534;2023-02-15T13:10:24;0.50;;;0.50;;
21733;SDS011;11029;47.820;10.534;2023-02-15T13:12:51;0.50;;;0.45;;
21733;SDS011;11029;47.820;10.534;2023-02-15T13:15:28;1.92;;;0.50;;
21733;SDS011;11029;47.820;10.534;2023-02-15T13:18:01;0.63;;;0.40;;
21733;SDS011;11029;47.820;10.534;2023-02-15T13:20:30;0.80;;;0.70;;
21733;SDS011;11029;47.820;10.534;2023-02-15T13:23:04;0.60;;;0.50;;
21733;SDS011;11029;47.820;10.534;2023-02-15T13:25:44;0.90;;;0.50;;
21733;SDS011;11029;47.820;10.534;2023-02-15T13:28:16;8.65;;;1.17;;
21733;SDS011;11029;47.820;10.534;2023-02-15T13:30:46;0.90;;;0.60;;
21733;SDS011;11029;47.820;10.534;2023-02-15T13:36:01;3.13;;;0.63;;
21733;SDS011;11029;47.820;10.534;2023-02-15T13:40:57;1.33;;;0.63;;
21733;SDS011;11029;47.820;10.534;2023-02-15T13:43:32;0.40;;;0.40;;
21733;SDS011;11029;47.820;10.534;2023-02-15T13:48:38;1.38;;;0.70;;
21733;SDS011;11029;47.820;10.534;2023-02-15T13:51:32;1.48;;;0.70;;
21733;SDS011;11029;47.820;10.534;2023-02-15T14:00:26;1.25;;;0.73;;
21733;SDS011;11029;47.820;10.534;2023-02-15T14:08:59;1.27;;;0.68;;
21733;SDS011;11029;47.820;10.534;2023-02-15T14:17:03;1.00;;;0.80;;
21733;SDS011;11029;47.820;10.534;2023-02-15T14:19:50;0.70;;;0.70;;
21733;SDS011;11029;47.820;10.534;2023-02-15T14:22:38;1.65;;;0.65;;
21733;SDS011;11029;47.820;10.534;2023-02-15T14:30:17;1.67;;;0.70;;
21733;SDS011;11029;47.820;10.534;2023-02-15T14:32:57;0.93;;;0.70;;
21733;SDS011;11029;47.820;10.534;2023-02-15T14:35:31;0.88;;;0.63;;
21733;SDS011;11029;47.820;10.534;2023-02-15T14:38:04;2.13;;;0.90;;
21733;SDS011;11029;47.820;10.534;2023-02-15T14:40:54;0.80;;;0.80;;
21733;SDS011;11029;47.820;10.534;2023-02-15T14:43:31;1.38;;;0.82;;
21733;SDS011;11029;47.820;10.534;2023-02-15T14:48:36;2.33;;;1.70;;
21733;SDS011;11029;47.820;10.534;2023-02-15T14:56:04;2.05;;;1.80;;
21733;SDS011;11029;47.820;10.534;2023-02-15T15:01:16;1.70;;;1.60;;
21733;SDS011;11029;47.820;10.534;2023-02-15T15:04:12;2.15;;;1.95;;
21733;SDS011;11029;47.820;10.534;2023-02-15T15:06:57;3.20;;;2.40;;
21733;SDS011;11029;47.820;10.534;2023-02-15T15:09:45;4.93;;;2.30;;
21733;SDS011;11029;47.820;10.534;2023-02-15T15:14:50;3.00;;;2.30;;
21733;SDS011;11029;47.820;10.534;2023-02-15T15:22:40;5.35;;;2.92;;
21733;SDS011;11029;47.820;10.534;2023-02-15T15:28:52;4.10;;;2.63;;
21733;SDS011;11029;47.820;10.534;2023-02-15T15:40:13;3.22;;;2.92;;
21733;SDS011;11029;47.820;10.534;2023-02-15T15:42:54;9.68;;;6.03;;
21733;SDS011;11029;47.820;10.534;2023-02-15T15:48:30;10.52;;;6.15;;
21733;SDS011;11029;47.820;10.534;2023-02-15T15:51:05;8.63;;;5.60;;
21733;SDS011;11029;47.820;10.534;2023-02-15T15:53:43;8.23;;;5.25;;
21733;SDS011;11029;47.820;10.534;2023-02-15T15:56:19;4.95;;;3.92;;
21733;SDS011;11029;47.820;10.534;2023-02-15T15:58:55;6.22;;;2.97;;
21733;SDS011;11029;47.820;10.534;2023-02-15T16:01:41;3.08;;;2.58;;
21733;SDS011;11029;47.820;10.534;2023-02-15T16:04:13;3.88;;;2.78;;
21733;SDS011;11029;47.820;10.534;2023-02-15T16:06:49;4.75;;;3.08;;
21733;SDS011;11029;47.820;10.534;2023-02-15T16:09:25;3.08;;;2.42;;
21733;SDS011;11029;47.820;10.534;2023-02-15T16:11:56;5.90;;;3.53;;
21733;SDS011;11029;47.820;10.534;2023-02-15T16:14:32;5.22;;;3.17;;
21733;SDS011;11029;47.820;10.534;2023-02-15T16:17:04;4.75;;;3.67;;
21733;SDS011;11029;47.820;10.534;2023-02-15T16:19:33;5.78;;;3.30;;
21733;SDS011;11029;47.820;10.534;2023-02-15T16:22:03;6.82;;;3.80;;
21733;SDS011;11029;47.820;10.534;2023-02-15T16:29:40;14.80;;;6.85;;
21733;SDS011;11029;47.820;10.534;2023-02-15T16:32:21;10.18;;;5.40;;
21733;SDS011;11029;47.820;10.534;2023-02-15T16:34:51;10.10;;;6.07;;
21733;SDS011;11029;47.820;10.534;2023-02-15T16:37:20;10.00;;;6.63;;
21733;SDS011;11029;47.820;10.534;2023-02-15T16:39:49;9.75;;;6.25;;
21733;SDS011;11029;47.820;10.534;2023-02-15T16:42:16;10.85;;;4.43;;
21733;SDS011;11029;47.820;10.534;2023-02-15T16:44:48;28.33;;;14.27;;
21733;SDS011;11029;47.820;10.534;2023-02-15T16:47:25;26.13;;;12.93;;
21733;SDS011;11029;47.820;10.534;2023-02-15T16:49:54;17.20;;;8.68;;
21733;SDS011;11029;47.820;10.534;2023-02-15T16:52:25;14.02;;;7.15;;
21733;SDS011;11029;47.820;10.534;2023-02-15T16:54:54;16.88;;;8.00;;
21733;SDS011;11029;47.820;10.534;2023-02-15T16:57:28;19.05;;;11.32;;
21733;SDS011;11029;47.820;10.534;2023-02-15T17:00:02;25.65;;;14.63;;
21733;SDS011;11029;47.820;10.534;2023-02-15T17:02:32;24.25;;;13.93;;
21733;SDS011;11029;47.820;10.534;2023-02-15T17:05:21;43.42;;;21.92;;
21733;SDS011;11029;47.820;10.534;2023-02-15T17:08:03;41.65;;;21.50;;
21733;SDS011;11029;47.820;10.534;2023-02-15T17:13:26;17.08;;;7.57;;
21733;SDS011;11029;47.820;10.534;2023-02-15T17:18:28;28.52;;;12.70;;
21733;SDS011;11029;47.820;10.534;2023-02-15T17:20:58;22.52;;;12.57;;
21733;SDS011;11029;47.820;10.534;2023-02-15T17:23:31;18.33;;;8.73;;
21733;SDS011;11029;47.820;10.534;2023-02-15T17:26:13;17.53;;;8.47;;
21733;SDS011;11029;47.820;10.534;2023-02-15T17:28:46;12.68;;;6.78;;
21733;SDS011;11029;47.820;10.534;2023-02-15T17:31:16;12.57;;;7.10;;
21733;SDS011;11029;47.820;10.534;2023-02-15T17:33:45;14.40;;;7.10;;
21733;SDS011;11029;47.820;10.534;2023-02-15T17:36:13;14.38;;;6.35;;
21733;SDS011;11029;47.820;10.534;2023-02-15T17:38:59;11.07;;;6.25;;
21733;SDS011;11029;47.820;10.534;2023-02-15T17:41:52;7.88;;;5.63;;
21733;SDS011;11029;47.820;10.534;2023-02-15T17:44:19;8.30;;;4.55;;
21733;SDS011;11029;47.820;10.534;2023-02-15T17:46:45;7.32;;;4.18;;
21733;SDS011;11029;47.820;10.534;2023-02-15T17:49:25;13.30;;;5.35;;